Time;durP1;ratioP1;P1;durP2;ratioP2;P2;SDS_P1;SDS_P2;PMS_P1;PMS_P2;Temp;Humidity;BMP_temperature;BMP_pressure;BME280_temperature;BME280_humidity;BME280_pressure;Samples;Min_cycle;Max_cycle;Signal;HPM_P1;HPM_P2
2024/01/19 00:00:47;;;;;;;1.33;1.00;;;2.30;42.80;;;;;;5072359;28;20192;-46
2024/01/19 00:03:13;;;;;;;1.20;1.00;;;2.30;42.80;;;;;;5089357;28;20180;-48
2024/01/19 00:05:38;;;;;;;2.60;0.97;;;2.30;42.80;;;;;;5072424;28;20181;-45
2024/01/19 00:08:04;;;;;;;2.10;1.17;;;2.30;42.70;;;;;;5071220;28;20204;-45
2024/01/19 00:10:33;;;;;;;3.42;1.92;;;2.30;42.60;;;;;;5072599;28;20750;-49
2024/01/19 00:12:59;;;;;;;0.70;0.20;;;2.20;42.60;;;;;;5080833;28;20209;-47
2024/01/19 00:15:25;;;;;;;4.95;2.38;;;2.20;42.60;;;;;;5072843;28;20219;-47
2024/01/19 00:17:51;;;;;;;4.83;2.00;;;2.20;42.70;;;;;;5072887;28;20184;-47
2024/01/19 00:20:17;;;;;;;0.90;0.77;;;2.20;42.80;;;;;;5072161;28;20200;-44
2024/01/19 00:22:43;;;;;;;1.93;1.83;;;2.20;42.80;;;;;;5072813;28;20181;-44
2024/01/19 00:25:09;;;;;;;0.80;0.50;;;2.20;42.70;;;;;;5073085;28;20183;-49
2024/01/19 00:27:34;;;;;;;6.43;2.97;;;2.20;42.70;;;;;;5071970;28;20197;-48
2024/01/19 00:30:00;;;;;;;1.00;0.90;;;2.20;42.60;;;;;;5071860;28;20411;-44
2024/01/19 00:32:26;;;;;;;2.30;1.50;;;2.20;42.70;;;;;;5072315;28;20176;-43
2024/01/19 00:34:52;;;;;;;0.77;0.30;;;2.20;42.60;;;;;;5072252;28;20177;-48
2024/01/19 00:37:18;;;;;;;0.80;0.43;;;2.20;42.60;;;;;;5072032;28;22067;-47
2024/01/19 00:39:43;;;;;;;1.03;0.80;;;2.20;42.60;;;;;;5071428;28;20175;-44
2024/01/19 00:42:09;;;;;;;0.80;0.70;;;2.20;42.50;;;;;;5071904;28;20205;-48
2024/01/19 00:44:35;;;;;;;1.53;1.13;;;2.10;42.30;;;;;;5074036;28;20173;-45
2024/01/19 00:47:00;;;;;;;0.80;0.40;;;2.10;42.40;;;;;;5073708;28;20197;-47
2024/01/19 00:49:26;;;;;;;2.70;1.13;;;2.10;42.10;;;;;;5073576;28;20766;-47
2024/01/19 00:51:52;;;;;;;0.87;0.63;;;2.00;41.60;;;;;;5071900;28;20201;-43
2024/01/19 00:54:18;;;;;;;7.33;3.70;;;2.00;41.60;;;;;;5071739;28;21395;-49
2024/01/19 00:56:43;;;;;;;1.00;0.87;;;1.90;41.40;;;;;;5071700;28;20403;-45
2024/01/19 00:59:09;;;;;;;3.07;1.57;;;1.80;41.20;;;;;;5071966;28;20211;-42
2024/01/19 01:01:35;;;;;;;1.13;0.87;;;1.70;41.20;;;;;;5071896;28;20488;-48
2024/01/19 01:04:02;;;;;;;2.33;2.20;;;1.60;41.00;;;;;;5071905;28;20181;-48
2024/01/19 01:06:28;;;;;;;1.05;0.57;;;1.60;41.40;;;;;;5071729;28;20204;-44
2024/01/19 01:08:54;;;;;;;1.77;0.77;;;1.60;41.40;;;;;;5071790;28;20612;-48
2024/01/19 01:11:21;;;;;;;1.20;1.00;;;1.50;41.20;;;;;;5074163;28;20184;-44
2024/01/19 01:13:47;;;;;;;4.35;3.95;;;1.40;40.70;;;;;;5085394;28;20248;-45
2024/01/19 01:16:13;;;;;;;1.40;0.85;;;1.30;40.60;;;;;;5071745;28;20173;-49
2024/01/19 01:18:40;;;;;;;1.25;0.88;;;1.30;40.60;;;;;;5071787;28;20242;-49
2024/01/19 01:21:06;;;;;;;0.90;0.55;;;1.20;40.70;;;;;;5071276;28;20205;-44
2024/01/19 01:23:33;;;;;;;3.30;2.30;;;1.10;41.20;;;;;;5071575;28;20216;-45
2024/01/19 01:25:58;;;;;;;0.90;0.50;;;1.10;40.60;;;;;;5071412;28;20196;-46
2024/01/19 01:28:24;;;;;;;0.80;0.30;;;1.00;40.60;;;;;;5071458;28;20671;-45
2024/01/19 01:30:50;;;;;;;0.80;0.30;;;1.00;40.40;;;;;;5071275;28;20443;-45
2024/01/19 01:33:16;;;;;;;0.80;0.50;;;0.90;39.40;;;;;;5071505;28;20423;-46
2024/01/19 01:35:41;;;;;;;1.43;1.33;;;0.80;39.70;;;;;;5071409;28;20173;-45
2024/01/19 01:38:07;;;;;;;1.00;0.90;;;0.70;39.70;;;;;;5071378;28;20440;-45
2024/01/19 01:40:33;;;;;;;3.10;1.43;;;0.70;40.40;;;;;;5071123;28;20255;-46
2024/01/19 01:43:05;;;;;;;1.00;0.70;;;0.70;40.50;;;;;;5079968;28;20414;-47
2024/01/19 01:45:30;;;;;;;0.80;0.32;;;0.60;40.00;;;;;;5071345;28;20181;-44
2024/01/19 01:47:58;;;;;;;3.87;3.67;;;0.60;40.00;;;;;;5071322;28;20220;-44
2024/01/19 01:50:24;;;;;;;1.58;1.48;;;0.60;39.80;;;;;;5070983;28;20280;-51
2024/01/19 01:52:51;;;;;;;2.73;1.90;;;0.50;40.10;;;;;;5073347;28;20264;-44
2024/01/19 01:55:17;;;;;;;1.10;0.90;;;0.40;40.10;;;;;;5077541;28;20464;-48
2024/01/19 01:57:44;;;;;;;0.80;0.40;;;0.40;40.30;;;;;;5089109;28;20181;-47
2024/01/19 02:00:13;;;;;;;1.30;1.20;;;0.40;40.20;;;;;;5091590;28;20203;-44
2024/01/19 02:02:39;;;;;;;1.80;1.35;;;0.50;40.20;;;;;;5074944;28;20184;-44
2024/01/19 02:05:05;;;;;;;1.10;1.00;;;0.60;40.40;;;;;;5074749;28;20270;-45
2024/01/19 02:07:31;;;;;;;0.97;0.87;;;0.50;40.70;;;;;;5074626;28;20331;-45
2024/01/19 02:09:57;;;;;;;1.50;1.30;;;0.50;41.10;;;;;;5074937;28;20180;-43
2024/01/19 02:12:23;;;;;;;1.25;1.15;;;-0.80;40.70;;;;;;5074749;28;20177;-45
2024/01/19 02:14:49;;;;;;;0.70;0.30;;;0.70;41.70;;;;;;5089969;28;20164;-46
2024/01/19 02:17:15;;;;;;;1.00;0.90;;;0.80;41.60;;;;;;5086622;28;20438;-44
2024/01/19 02:19:40;;;;;;;3.80;0.90;;;0.90;41.60;;;;;;5080776;28;20667;-45
2024/01/19 02:22:06;;;;;;;0.80;0.37;;;0.90;41.30;;;;;;5083508;28;20633;-50
2024/01/19 02:24:33;;;;;;;0.90;0.70;;;0.90;41.20;;;;;;5080506;28;20268;-47
2024/01/19 02:27:01;;;;;;;0.80;0.52;;;0.90;41.60;;;;;;5074305;28;20196;-43
2024/01/19 02:29:27;;;;;;;0.90;0.70;;;1.00;42.40;;;;;;5074474;28;20197;-45
2024/01/19 02:31:52;;;;;;;1.30;1.20;;;1.00;42.50;;;;;;5072884;28;20236;-47
2024/01/19 02:34:18;;;;;;;0.80;0.33;;;1.10;42.40;;;;;;5074218;28;20176;-45
2024/01/19 02:36:44;;;;;;;3.03;2.73;;;1.30;42.40;;;;;;5074219;28;20783;-45
2024/01/19 02:39:09;;;;;;;1.00;0.80;;;1.30;42.20;;;;;;5075507;28;20180;-48
2024/01/19 02:41:35;;;;;;;0.70;0.23;;;1.40;41.80;;;;;;5089228;28;20213;-44
2024/01/19 02:44:01;;;;;;;2.13;2.03;;;1.40;41.70;;;;;;5074292;28;20231;-44
2024/01/19 02:46:26;;;;;;;0.70;0.20;;;1.40;41.70;;;;;;5074087;28;20199;-47
2024/01/19 02:48:52;;;;;;;2.70;2.37;;;1.40;41.50;;;;;;5081351;28;20642;-46
2024/01/19 02:51:18;;;;;;;0.70;0.20;;;1.40;41.50;;;;;;5081740;28;20742;-45
2024/01/19 02:53:44;;;;;;;1.13;0.70;;;1.40;41.80;;;;;;5074352;28;20465;-49
2024/01/19 02:56:09;;;;;;;0.87;0.53;;;1.40;41.70;;;;;;5073963;28;20539;-49
2024/01/19 02:58:35;;;;;;;0.93;0.70;;;1.40;41.70;;;;;;5073797;28;20181;-45
2024/01/19 03:01:01;;;;;;;0.70;0.30;;;1.40;41.40;;;;;;5073653;28;20203;-44
2024/01/19 03:03:27;;;;;;;2.00;1.90;;;1.40;41.60;;;;;;5089810;28;20173;-50
2024/01/19 03:05:52;;;;;;;1.10;0.87;;;1.30;42.10;;;;;;5073626;28;20932;-44
2024/01/19 03:08:23;;;;;;;4.97;1.80;;;1.30;42.70;;;;;;5073407;28;20459;-43
2024/01/19 03:10:49;;;;;;;0.80;0.35;;;1.30;42.90;;;;;;5073503;28;20180;-47
2024/01/19 03:13:15;;;;;;;2.20;1.63;;;1.30;42.80;;;;;;5073436;28;20177;-46
2024/01/19 03:15:41;;;;;;;1.20;1.10;;;1.30;42.60;;;;;;5073457;28;20404;-46
2024/01/19 03:18:06;;;;;;;1.90;1.80;;;1.40;42.40;;;;;;5073348;28;20264;-48
2024/01/19 03:20:32;;;;;;;0.97;0.83;;;1.40;42.30;;;;;;5073194;28;20222;-49
2024/01/19 03:22:58;;;;;;;1.37;0.93;;;1.40;42.40;;;;;;5074362;28;20681;-44
2024/01/19 03:25:24;;;;;;;0.80;0.50;;;1.40;42.30;;;;;;5073798;28;20415;-44
2024/01/19 03:27:49;;;;;;;1.63;1.53;;;1.50;42.30;;;;;;5073453;28;20203;-49
2024/01/19 03:30:16;;;;;;;0.80;0.20;;;1.40;42.30;;;;;;5073074;28;20272;-46
2024/01/19 03:32:41;;;;;;;4.30;1.63;;;1.50;42.20;;;;;;5073838;28;20176;-44
2024/01/19 03:35:08;;;;;;;0.80;0.40;;;1.50;42.00;;;;;;5073183;28;20173;-48
2024/01/19 03:37:34;;;;;;;1.20;0.70;;;1.50;41.90;;;;;;5073438;28;20174;-47
2024/01/19 03:39:59;;;;;;;4.67;1.60;;;1.50;41.50;;;;;;5073611;28;20279;-45
2024/01/19 03:42:28;;;;;;;1.00;0.90;;;1.50;41.60;;;;;;5073259;28;20412;-43
2024/01/19 03:44:54;;;;;;;1.70;1.10;;;1.50;41.10;;;;;;5072862;28;20207;-48
2024/01/19 03:47:19;;;;;;;0.70;0.30;;;1.40;41.10;;;;;;5072696;28;20275;-45
2024/01/19 03:49:45;;;;;;;1.20;0.97;;;1.40;41.00;;;;;;5072811;28;20176;-42
2024/01/19 03:52:11;;;;;;;1.23;0.60;;;1.30;40.80;;;;;;5072384;28;20204;-49
2024/01/19 03:54:37;;;;;;;1.23;1.13;;;1.20;40.40;;;;;;5072659;28;20543;-49
2024/01/19 03:57:06;;;;;;;1.42;1.00;;;1.10;40.50;;;;;;5072716;28;20423;-43
2024/01/19 03:59:32;;;;;;;1.10;0.73;;;1.00;40.50;;;;;;5072705;28;20180;-48
2024/01/19 04:01:58;;;;;;;1.30;1.20;;;1.00;40.60;;;;;;5080204;28;20765;-47
2024/01/19 04:04:25;;;;;;;0.90;0.60;;;0.90;40.60;;;;;;5081470;28;20586;-45
2024/01/19 04:06:52;;;;;;;1.25;1.15;;;0.80;40.70;;;;;;5072750;28;20537;-47
2024/01/19 04:09:21;;;;;;;1.67;0.95;;;0.80;40.90;;;;;;5074670;28;20667;-48
2024/01/19 04:11:47;;;;;;;1.75;0.70;;;0.80;41.00;;;;;;5085907;28;20686;-43
2024/01/19 04:14:13;;;;;;;2.40;1.93;;;0.80;41.00;;;;;;5071912;28;20181;-46
2024/01/19 04:16:39;;;;;;;8.67;2.83;;;0.80;41.90;;;;;;5072149;28;20180;-49
2024/01/19 04:19:07;;;;;;;0.80;0.50;;;0.80;42.10;;;;;;5072741;28;20408;-48
2024/01/19 04:21:33;;;;;;;2.15;2.05;;;0.80;42.20;;;;;;5072091;28;20216;-44
2024/01/19 04:23:59;;;;;;;0.90;0.77;;;0.90;42.30;;;;;;5072368;28;20278;-44
2024/01/19 04:26:27;;;;;;;1.40;0.88;;;0.90;42.50;;;;;;5071068;28;20412;-44
2024/01/19 04:28:54;;;;;;;1.10;0.77;;;1.00;42.20;;;;;;5072019;28;20220;-46
2024/01/19 04:31:19;;;;;;;1.17;0.63;;;1.00;42.10;;;;;;5071839;28;20185;-43
2024/01/19 04:33:45;;;;;;;1.10;0.97;;;1.10;42.20;;;;;;5072267;28;20179;-46
2024/01/19 04:36:11;;;;;;;0.80;0.50;;;1.10;42.70;;;;;;5072206;28;20172;-47
2024/01/19 04:38:36;;;;;;;1.57;1.37;;;1.20;41.90;;;;;;5071950;28;20223;-48
2024/01/19 04:41:03;;;;;;;1.73;1.63;;;1.20;41.90;;;;;;5071502;28;20693;-45
2024/01/19 04:43:28;;;;;;;0.80;0.55;;;1.20;41.70;;;;;;5072080;28;20177;-49
2024/01/19 04:45:54;;;;;;;1.83;1.40;;;1.20;41.50;;;;;;5071846;28;20658;-46
2024/01/19 04:48:20;;;;;;;0.80;0.30;;;1.20;41.60;;;;;;5073055;28;20586;-44
2024/01/19 04:50:46;;;;;;;1.10;0.97;;;1.20;41.60;;;;;;5088144;28;20192;-46
2024/01/19 04:53:11;;;;;;;1.10;0.97;;;1.20;41.60;;;;;;5076240;28;20643;-48
2024/01/19 04:55:37;;;;;;;0.80;0.30;;;1.30;41.60;;;;;;5072496;28;20164;-45
2024/01/19 04:58:03;;;;;;;0.90;0.50;;;1.30;41.60;;;;;;5071723;28;20917;-49
2024/01/19 05:00:29;;;;;;;0.93;0.82;;;1.30;41.60;;;;;;5083611;28;20192;-46
2024/01/19 05:02:55;;;;;;;0.77;0.30;;;1.30;41.50;;;;;;5076410;28;20196;-46
2024/01/19 05:05:21;;;;;;;1.83;0.97;;;1.20;41.50;;;;;;5074590;28;20347;-47
2024/01/19 05:07:46;;;;;;;0.90;0.77;;;1.20;41.60;;;;;;5085741;28;20451;-48
2024/01/19 05:10:12;;;;;;;2.13;1.50;;;1.30;42.30;;;;;;5071716;28;20279;-45
2024/01/19 05:12:38;;;;;;;0.97;0.83;;;1.20;41.50;;;;;;5071676;28;20169;-50
2024/01/19 05:15:04;;;;;;;2.28;2.08;;;1.20;41.50;;;;;;5071308;28;20169;-48
2024/01/19 05:17:30;;;;;;;2.10;2.00;;;1.20;41.40;;;;;;5071607;28;20188;-44
2024/01/19 05:19:56;;;;;;;1.40;1.30;;;1.20;41.30;;;;;;5071885;28;20419;-44
2024/01/19 05:22:21;;;;;;;0.80;0.40;;;1.20;41.30;;;;;;5088220;28;20180;-49
2024/01/19 05:24:49;;;;;;;0.90;0.80;;;1.10;41.00;;;;;;5071579;28;20651;-48
2024/01/19 05:27:15;;;;;;;0.90;0.60;;;1.00;40.80;;;;;;5074264;28;20225;-46
2024/01/19 05:29:41;;;;;;;1.20;0.87;;;1.00;40.70;;;;;;5075361;28;20264;-45
2024/01/19 05:32:07;;;;;;;0.80;0.40;;;0.90;40.50;;;;;;5075883;28;20205;-48
2024/01/19 05:34:32;;;;;;;1.10;0.90;;;0.80;40.40;;;;;;5091644;28;20415;-44
2024/01/19 05:36:58;;;;;;;1.00;0.90;;;0.80;40.80;;;;;;5075610;28;20269;-45
2024/01/19 05:39:24;;;;;;;1.90;1.80;;;0.80;40.90;;;;;;5075203;28;20184;-47
2024/01/19 05:41:50;;;;;;;0.90;0.73;;;0.70;40.90;;;;;;5090076;28;20235;-44
2024/01/19 05:44:15;;;;;;;2.10;0.93;;;0.70;40.90;;;;;;5078572;28;20256;-46
2024/01/19 05:46:42;;;;;;;1.23;0.87;;;0.70;40.70;;;;;;5089966;28;20177;-49
2024/01/19 05:49:07;;;;;;;1.75;0.73;;;0.60;40.50;;;;;;5075279;28;20596;-49
2024/01/19 05:51:33;;;;;;;1.00;0.90;;;0.50;39.80;;;;;;5074825;28;20189;-45
2024/01/19 05:53:59;;;;;;;5.23;1.60;;;0.50;40.20;;;;;;5075175;28;20218;-45
2024/01/19 05:56:25;;;;;;;1.33;1.23;;;0.40;40.00;;;;;;5075035;28;20171;-45
2024/01/19 05:58:51;;;;;;;0.70;0.20;;;0.30;40.00;;;;;;5075022;28;20177;-45
2024/01/19 06:01:17;;;;;;;2.50;0.60;;;0.20;39.80;;;;;;5074823;28;20254;-47
2024/01/19 06:03:42;;;;;;;0.90;0.63;;;0.20;40.20;;;;;;5074836;28;20439;-44
2024/01/19 06:06:08;;;;;;;2.23;0.87;;;0.10;39.70;;;;;;5074716;28;20181;-46
2024/01/19 06:08:34;;;;;;;1.05;0.50;;;0.10;39.90;;;;;;5074670;28;20462;-46
2024/01/19 06:11:00;;;;;;;1.10;0.73;;;0.00;39.20;;;;;;5074559;28;20249;-44
2024/01/19 06:13:26;;;;;;;0.80;0.30;;;-0.10;39.20;;;;;;5074476;28;20174;-50
2024/01/19 06:15:51;;;;;;;0.70;0.30;;;-0.20;39.90;;;;;;5074622;28;20268;-41
2024/01/19 06:18:17;;;;;;;0.90;0.57;;;-0.20;40.60;;;;;;5074586;28;20181;-48
2024/01/19 06:20:43;;;;;;;3.23;2.10;;;-0.20;40.70;;;;;;5088294;28;20227;-47
2024/01/19 06:23:12;;;;;;;0.80;0.50;;;-0.20;40.30;;;;;;5077457;28;20514;-46
2024/01/19 06:25:40;;;;;;;0.90;0.70;;;-0.20;40.40;;;;;;5074574;28;20901;-49
2024/01/19 06:28:06;;;;;;;2.65;2.45;;;-0.20;40.70;;;;;;5074117;28;20240;-44
2024/01/19 06:30:32;;;;;;;0.80;0.40;;;-0.10;41.00;;;;;;5074139;28;20189;-43
2024/01/19 06:32:58;;;;;;;0.70;0.20;;;-0.10;40.80;;;;;;5074456;28;20173;-48
2024/01/19 06:35:24;;;;;;;10.00;1.77;;;-0.10;40.50;;;;;;5074321;28;20177;-43
2024/01/19 06:37:50;;;;;;;2.67;2.47;;;-0.10;41.00;;;;;;5073830;28;20901;-43
2024/01/19 06:40:16;;;;;;;3.60;3.17;;;-0.10;41.00;;;;;;5074032;28;20447;-50
2024/01/19 06:42:45;;;;;;;0.80;0.40;;;-0.10;41.40;;;;;;5074044;28;20185;-45
2024/01/19 06:45:11;;;;;;;0.90;0.80;;;-0.10;41.40;;;;;;5074026;28;20177;-44
2024/01/19 06:47:37;;;;;;;3.30;3.05;;;0.00;41.50;;;;;;5074136;28;20205;-52
2024/01/19 06:50:03;;;;;;;1.23;1.03;;;0.00;41.30;;;;;;5073946;28;20221;-51
2024/01/19 06:52:29;;;;;;;0.98;0.75;;;0.00;41.10;;;;;;5073974;28;20556;-44
2024/01/19 06:54:55;;;;;;;0.80;0.40;;;0.00;41.10;;;;;;5073966;28;20606;-49
2024/01/19 06:57:21;;;;;;;3.63;1.37;;;0.00;41.60;;;;;;5074583;28;20243;-44
2024/01/19 06:59:47;;;;;;;0.90;0.73;;;0.10;42.40;;;;;;5074915;28;20169;-44
2024/01/19 07:02:13;;;;;;;0.80;0.40;;;0.20;42.50;;;;;;5072353;28;20201;-46
2024/01/19 07:04:39;;;;;;;1.42;0.95;;;0.30;42.70;;;;;;5073937;28;20177;-47
2024/01/19 07:07:04;;;;;;;0.80;0.60;;;0.40;42.30;;;;;;5074085;28;20204;-47
2024/01/19 07:09:30;;;;;;;1.00;0.77;;;0.40;42.10;;;;;;5074176;28;20410;-42
2024/01/19 07:11:56;;;;;;;1.43;1.30;;;0.50;42.10;;;;;;5073230;28;20223;-44
2024/01/19 07:14:22;;;;;;;1.47;1.37;;;0.50;41.90;;;;;;5073926;28;20893;-47
2024/01/19 07:16:48;;;;;;;1.05;0.95;;;0.60;41.80;;;;;;5073963;28;20169;-50
2024/01/19 07:19:13;;;;;;;0.70;0.20;;;0.60;41.90;;;;;;5073729;28;20264;-46
2024/01/19 07:21:40;;;;;;;0.70;0.20;;;0.50;41.60;;;;;;5073183;28;20193;-49
2024/01/19 07:24:11;;;;;;;2.35;2.15;;;0.50;41.80;;;;;;5073159;28;20982;-46
2024/01/19 07:26:38;;;;;;;0.80;0.50;;;0.60;41.90;;;;;;5073452;28;20229;-45
2024/01/19 07:29:06;;;;;;;2.30;2.10;;;0.60;41.90;;;;;;5073386;28;20173;-45
2024/01/19 07:31:36;;;;;;;2.42;2.33;;;0.70;42.10;;;;;;5073106;28;20231;-44
2024/01/19 07:34:03;;;;;;;0.80;0.40;;;0.70;41.90;;;;;;5073142;28;20197;-51
2024/01/19 07:36:29;;;;;;;0.80;0.35;;;0.80;42.00;;;;;;5084662;28;20184;-48
2024/01/19 07:38:55;;;;;;;1.00;0.60;;;0.90;42.30;;;;;;5077876;28;20177;-45
2024/01/19 07:41:21;;;;;;;0.73;0.30;;;1.20;42.40;;;;;;5072495;28;20228;-45
2024/01/19 07:43:46;;;;;;;2.70;2.20;;;1.30;43.00;;;;;;5072884;28;20231;-47
2024/01/19 07:46:14;;;;;;;0.93;0.73;;;1.40;42.80;;;;;;5072928;28;20423;-43
2024/01/19 07:48:40;;;;;;;0.75;0.30;;;1.60;42.70;;;;;;5072914;28;20211;-46
2024/01/19 07:51:06;;;;;;;2.55;2.35;;;1.70;42.40;;;;;;5072491;28;20193;-48
2024/01/19 07:53:32;;;;;;;2.80;1.67;;;1.90;42.30;;;;;;5071512;28;20520;-48
2024/01/19 07:55:58;;;;;;;1.10;0.80;;;2.10;42.00;;;;;;5073026;28;20260;-44
2024/01/19 07:58:25;;;;;;;2.00;1.15;;;2.50;42.00;;;;;;5072544;28;21043;-47
2024/01/19 08:00:50;;;;;;;3.97;3.60;;;2.70;41.60;;;;;;5072272;28;20698;-45
2024/01/19 08:03:18;;;;;;;8.70;1.50;;;2.90;40.90;;;;;;5071336;28;20210;-47
2024/01/19 08:05:44;;;;;;;0.90;0.50;;;3.10;40.70;;;;;;5072334;28;20169;-50
2024/01/19 08:08:10;;;;;;;0.90;0.60;;;3.10;40.50;;;;;;5072340;28;20266;-46
2024/01/19 08:10:36;;;;;;;4.03;3.30;;;3.10;40.40;;;;;;5084650;28;20229;-49
2024/01/19 08:13:02;;;;;;;1.15;1.05;;;3.30;40.50;;;;;;5084566;28;20259;-44
2024/01/19 08:15:28;;;;;;;1.75;1.65;;;3.50;40.00;;;;;;5081131;28;20219;-46
2024/01/19 08:17:54;;;;;;;0.87;0.50;;;3.70;39.50;;;;;;5072401;28;20177;-44
2024/01/19 08:20:21;;;;;;;5.32;1.33;;;3.80;39.30;;;;;;5071858;28;20439;-45
2024/01/19 08:22:47;;;;;;;0.90;0.50;;;4.10;38.70;;;;;;5086473;28;20580;-48
2024/01/19 08:25:14;;;;;;;5.18;4.88;;;4.40;39.00;;;;;;5074668;28;20709;-43
2024/01/19 08:27:43;;;;;;;0.80;0.30;;;5.50;38.00;;;;;;5072279;28;20207;-44
2024/01/19 08:30:10;;;;;;;1.45;0.75;;;4.40;38.70;;;;;;5070718;28;20168;-49
2024/01/19 08:32:36;;;;;;;1.50;0.70;;;4.50;37.60;;;;;;5073142;28;20327;-44
2024/01/19 08:35:08;;;;;;;5.20;0.52;;;4.40;37.40;;;;;;5074110;28;20173;-44
2024/01/19 08:37:36;;;;;;;1.00;0.88;;;4.40;37.90;;;;;;5086334;28;20182;-46
2024/01/19 08:40:02;;;;;;;5.30;2.97;;;4.50;38.40;;;;;;5076594;28;20271;-51
2024/01/19 08:42:28;;;;;;;1.75;1.52;;;4.60;38.50;;;;;;5071916;28;20177;-44
2024/01/19 08:44:53;;;;;;;1.03;0.77;;;4.70;38.70;;;;;;5071952;28;20172;-45
2024/01/19 08:47:19;;;;;;;1.43;1.33;;;4.60;37.70;;;;;;5071885;28;20678;-50
2024/01/19 08:49:45;;;;;;;0.90;0.70;;;4.60;38.60;;;;;;5071882;28;20180;-51
2024/01/19 08:52:10;;;;;;;4.37;1.80;;;4.50;37.50;;;;;;5071606;28;20211;-44
2024/01/19 08:54:38;;;;;;;4.80;2.00;;;4.50;38.20;;;;;;5071844;28;20176;-44
2024/01/19 08:57:04;;;;;;;3.60;1.65;;;4.50;38.10;;;;;;5071936;28;20173;-50
2024/01/19 08:59:31;;;;;;;1.33;1.23;;;4.60;38.60;;;;;;5071766;28;20546;-51
2024/01/19 09:01:57;;;;;;;2.08;1.05;;;4.50;38.70;;;;;;5071125;28;20929;-45
2024/01/19 09:04:24;;;;;;;1.50;1.40;;;4.60;38.20;;;;;;5071647;28;20192;-46
2024/01/19 09:06:51;;;;;;;1.42;0.63;;;4.60;38.70;;;;;;5071768;28;20212;-44
2024/01/19 09:09:17;;;;;;;1.33;0.90;;;4.80;38.00;;;;;;5071610;28;20667;-45
2024/01/19 09:11:43;;;;;;;0.80;0.40;;;5.00;38.40;;;;;;5071671;28;20341;-44
2024/01/19 09:14:10;;;;;;;3.28;1.05;;;5.40;37.60;;;;;;5071636;28;20268;-49
2024/01/19 09:16:36;;;;;;;4.40;1.98;;;6.00;38.00;;;;;;5071664;28;20181;-45
2024/01/19 09:19:02;;;;;;;1.33;0.45;;;6.40;37.20;;;;;;5071747;28;20192;-44
2024/01/19 09:21:28;;;;;;;3.43;3.13;;;6.80;36.50;;;;;;5071487;28;20213;-46
2024/01/19 09:23:53;;;;;;;12.67;5.10;;;6.90;35.20;;;;;;5071751;28;20466;-48
2024/01/19 09:26:23;;;;;;;1.37;0.70;;;7.00;34.50;;;;;;5071592;28;20542;-45
2024/01/19 09:28:50;;;;;;;2.30;1.90;;;7.10;35.90;;;;;;5077315;28;20279;-46
2024/01/19 09:31:16;;;;;;;1.10;0.77;;;7.30;35.40;;;;;;5081859;28;20207;-47
2024/01/19 09:33:42;;;;;;;2.08;1.15;;;7.40;35.00;;;;;;5071440;28;20252;-44
2024/01/19 09:36:08;;;;;;;2.78;2.28;;;7.50;35.50;;;;;;5071612;28;20174;-47
2024/01/19 09:38:35;;;;;;;3.05;1.67;;;7.60;35.10;;;;;;5083552;28;20599;-47
2024/01/19 09:41:19;;;;;;;1.50;1.40;;;7.80;35.30;;;;;;5075572;28;20225;-45
2024/01/19 09:43:47;;;;;;;1.38;0.88;;;7.90;34.60;;;;;;5079785;28;20169;-47
2024/01/19 09:46:26;;;;;;;1.50;1.30;;;7.80;34.30;;;;;;5071634;28;20267;-44
2024/01/19 09:49:10;;;;;;;1.00;0.73;;;7.80;34.80;;;;;;5070388;28;20236;-49
2024/01/19 09:51:53;;;;;;;3.00;1.08;;;7.90;32.70;;;;;;5082194;28;20196;-48
2024/01/19 09:54:28;;;;;;;2.92;1.58;;;7.70;32.00;;;;;;5091299;28;20188;-47
2024/01/19 09:56:54;;;;;;;0.88;0.35;;;7.80;34.50;;;;;;5091500;28;20176;-45
2024/01/19 09:59:22;;;;;;;1.63;1.27;;;7.90;32.80;;;;;;5091516;28;20203;-43
2024/01/19 10:01:52;;;;;;;2.80;1.65;;;8.30;32.40;;;;;;5091566;28;20237;-46
2024/01/19 10:04:20;;;;;;;6.82;2.95;;;8.70;31.30;;;;;;5091722;28;20210;-48
2024/01/19 10:06:46;;;;;;;0.93;0.60;;;9.10;30.20;;;;;;5077691;28;20180;-44
2024/01/19 10:09:12;;;;;;;1.10;0.90;;;9.20;31.10;;;;;;5071776;28;20181;-50
2024/01/19 10:11:40;;;;;;;1.30;0.57;;;9.20;30.70;;;;;;5087174;28;20607;-48
2024/01/19 10:14:06;;;;;;;3.90;1.42;;;9.20;31.20;;;;;;5073681;28;20411;-45
2024/01/19 10:16:34;;;;;;;2.53;2.30;;;9.20;29.80;;;;;;5074532;28;20528;-50
2024/01/19 10:19:02;;;;;;;1.05;0.52;;;9.60;29.40;;;;;;5074708;28;20191;-45
2024/01/19 10:21:29;;;;;;;4.43;1.50;;;10.10;27.90;;;;;;5076914;28;20888;-46
2024/01/19 10:24:14;;;;;;;1.20;0.77;;;10.50;29.10;;;;;;5088459;28;20253;-50
2024/01/19 10:26:53;;;;;;;0.90;0.50;;;11.10;28.60;;;;;;5074668;28;20226;-45
2024/01/19 10:29:19;;;;;;;1.30;1.02;;;11.40;27.00;;;;;;5076094;28;20673;-48
2024/01/19 10:31:47;;;;;;;2.65;2.00;;;12.00;27.80;;;;;;5089263;28;20201;-45
2024/01/19 10:34:27;;;;;;;5.47;2.40;;;12.30;25.30;;;;;;5074428;28;20542;-47
2024/01/19 10:36:53;;;;;;;2.35;2.15;;;12.40;24.10;;;;;;5080612;28;20218;-46
2024/01/19 10:39:29;;;;;;;1.50;1.10;;;12.40;24.20;;;;;;5084844;28;20800;-48
2024/01/19 10:42:07;;;;;;;3.92;1.20;;;12.70;24.70;;;;;;5073898;28;20452;-46
2024/01/19 10:44:34;;;;;;;2.92;1.73;;;12.70;25.10;;;;;;5074477;28;20173;-45
2024/01/19 10:47:00;;;;;;;2.33;1.15;;;12.50;24.60;;;;;;5074082;28;20651;-50
2024/01/19 10:49:26;;;;;;;3.58;2.33;;;12.20;25.10;;;;;;5074101;28;20188;-44
2024/01/19 10:51:54;;;;;;;1.10;0.63;;;11.90;24.20;;;;;;5073850;28;20279;-48
2024/01/19 10:54:25;;;;;;;2.45;0.93;;;11.70;25.20;;;;;;5073884;28;20439;-45
2024/01/19 10:57:14;;;;;;;3.05;1.10;;;11.40;25.70;;;;;;5073952;28;20283;-45
2024/01/19 10:59:40;;;;;;;1.50;1.33;;;11.20;26.80;;;;;;5073778;28;20194;-52
2024/01/19 11:02:05;;;;;;;2.17;1.60;;;11.30;27.10;;;;;;5073571;28;20200;-49
2024/01/19 11:04:35;;;;;;;0.90;0.40;;;11.30;26.80;;;;;;5073766;28;20216;-45
2024/01/19 11:07:01;;;;;;;4.93;3.70;;;11.20;25.80;;;;;;5073455;28;20177;-49
2024/01/19 11:09:26;;;;;;;1.97;1.40;;;9.70;25.00;;;;;;5073675;28;20524;-46
2024/01/19 11:12:01;;;;;;;1.00;0.53;;;10.40;26.70;;;;;;5073327;28;20424;-45
2024/01/19 11:14:27;;;;;;;2.88;1.42;;;10.20;25.50;;;;;;5073555;28;20183;-52
2024/01/19 11:16:54;;;;;;;2.35;1.70;;;9.70;26.90;;;;;;5086887;28;20235;-44
2024/01/19 11:19:22;;;;;;;3.03;0.68;;;9.60;29.70;;;;;;5085211;28;20226;-49
2024/01/19 11:21:48;;;;;;;1.30;0.50;;;9.40;27.80;;;;;;5079557;28;20318;-44
2024/01/19 11:24:17;;;;;;;4.20;1.07;;;9.30;28.00;;;;;;5082051;28;20222;-45
2024/01/19 11:27:02;;;;;;;4.07;1.55;;;9.00;28.00;;;;;;5079260;28;21002;-51
2024/01/19 11:29:42;;;;;;;1.95;1.33;;;8.60;29.80;;;;;;5090152;28;20536;-46
2024/01/19 11:32:09;;;;;;;5.32;0.93;;;8.40;29.70;;;;;;5072878;28;20200;-47
2024/01/19 11:34:39;;;;;;;1.05;0.65;;;8.10;31.00;;;;;;5073339;28;20173;-51
2024/01/19 11:37:05;;;;;;;2.03;0.93;;;8.00;30.70;;;;;;5072975;28;20173;-45
2024/01/19 11:39:41;;;;;;;4.70;1.73;;;8.20;30.00;;;;;;5073205;28;20181;-44
2024/01/19 11:42:08;;;;;;;1.58;1.42;;;8.10;30.70;;;;;;5072870;28;20266;-51
2024/01/19 11:44:45;;;;;;;1.63;1.17;;;8.20;31.70;;;;;;5089670;28;20639;-46
2024/01/19 11:47:41;;;;;;;2.10;2.00;;;8.40;30.90;;;;;;5072732;28;20254;-47
2024/01/19 11:50:11;;;;;;;3.58;1.83;;;8.40;29.90;;;;;;5072065;28;20203;-51
2024/01/19 11:52:39;;;;;;;1.35;1.17;;;8.40;30.30;;;;;;5072777;28;20509;-43
2024/01/19 11:55:26;;;;;;;5.95;2.47;;;8.40;30.70;;;;;;5072518;28;20201;-47
2024/01/19 11:57:55;;;;;;;2.38;1.80;;;8.40;30.10;;;;;;5087055;28;20233;-47
2024/01/19 12:00:22;;;;;;;1.25;1.13;;;8.20;30.20;;;;;;5074337;28;20204;-48
2024/01/19 12:02:48;;;;;;;1.35;0.82;;;8.10;31.80;;;;;;5072681;28;20188;-45
2024/01/19 12:05:18;;;;;;;6.18;2.70;;;8.20;30.80;;;;;;5072448;28;20194;-43
2024/01/19 12:07:44;;;;;;;1.05;0.82;;;8.40;30.00;;;;;;5072260;28;20666;-48
2024/01/19 12:10:18;;;;;;;3.22;0.95;;;8.50;30.50;;;;;;5072444;28;20214;-46
2024/01/19 12:12:46;;;;;;;3.47;1.77;;;8.60;31.30;;;;;;5085568;28;20164;-45
2024/01/19 12:15:15;;;;;;;2.55;1.67;;;8.70;29.80;;;;;;5092508;28;20669;-46
2024/01/19 12:17:42;;;;;;;1.35;1.15;;;8.50;31.40;;;;;;5079957;28;20173;-49
2024/01/19 12:20:16;;;;;;;8.52;1.70;;;8.60;30.60;;;;;;5071871;28;20185;-46
2024/01/19 12:22:42;;;;;;;2.85;1.83;;;8.50;30.30;;;;;;5085272;28;20180;-44
2024/01/19 12:25:18;;;;;;;1.33;1.00;;;8.40;29.80;;;;;;5092619;28;20523;-51
2024/01/19 12:27:44;;;;;;;1.25;0.90;;;8.30;30.40;;;;;;5092328;28;20188;-44
2024/01/19 12:30:15;;;;;;;1.95;1.85;;;8.20;31.50;;;;;;5092139;28;20180;-45
2024/01/19 12:32:42;;;;;;;1.00;0.63;;;8.50;31.90;;;;;;5079670;28;20188;-51
2024/01/19 12:35:08;;;;;;;2.75;2.55;;;8.80;29.70;;;;;;5071663;28;20176;-51
2024/01/19 12:37:34;;;;;;;3.28;2.05;;;9.20;29.20;;;;;;5071680;28;20173;-44
2024/01/19 12:40:16;;;;;;;1.42;0.90;;;9.70;28.50;;;;;;5071773;28;20200;-47
2024/01/19 12:42:42;;;;;;;15.23;2.95;;;10.30;27.50;;;;;;5084745;28;20731;-45
2024/01/19 12:45:12;;;;;;;6.40;2.13;;;10.90;27.50;;;;;;5092110;28;20191;-45
2024/01/19 12:47:45;;;;;;;4.93;1.73;;;11.40;27.80;;;;;;5092102;28;20622;-45
2024/01/19 12:50:11;;;;;;;6.63;2.10;;;11.80;25.70;;;;;;5091895;28;20180;-49
2024/01/19 12:52:37;;;;;;;1.20;0.80;;;12.30;24.90;;;;;;5092160;28;20746;-46
2024/01/19 12:55:04;;;;;;;2.90;2.50;;;12.50;26.30;;;;;;5092029;28;20271;-50